Weather at Cabo San Lucas International Airport

Public forecast

Using degrees Celsius for public forecast. Weather courtesy of forecast.io.

Current aviation weather report (METAR) for Cabo San Lucas International Airport

Report is more than 6 hours old.

2022/11/27 02:40 (retrieved 6 hours ago)

MMSL 270240Z 25003KT 8SM SKC 20/12 A3002

Aviation forecast (TAF) for Cabo San Lucas International Airport

2022/11/27 06:59 (retrieved 2 hours ago)

TAF MMSL 270459Z 2706/2806 00000KT P6SM SKC FM271900 24010KT P6SM SKC FM280300 25005KT P6SM SKC